createdAt,value
2023-09-14T00:01:27.420Z,101334.59
2023-09-14T00:03:54.737Z,101341.44
2023-09-14T00:06:30.232Z,101349.25
2023-09-14T00:08:56.992Z,101340.16
2023-09-14T00:11:26.546Z,101344.69
2023-09-14T00:13:53.469Z,101351.09
2023-09-14T00:16:26.357Z,101344.97
2023-09-14T00:18:53.071Z,101347.25
2023-09-14T00:21:22.163Z,101345.41
2023-09-14T00:24:00.207Z,101344.41
2023-09-14T00:26:29.357Z,101338.88
2023-09-14T00:28:55.997Z,101350.38
2023-09-14T00:31:28.465Z,101342.41
2023-09-14T00:33:58.061Z,101358.91
2023-09-14T00:36:31.387Z,101355.63
2023-09-14T00:39:00.170Z,101347.81
2023-09-14T00:41:30.156Z,101347.50
2023-09-14T00:43:56.973Z,101355.44
2023-09-14T00:46:28.101Z,101354.88
2023-09-14T00:48:55.538Z,101355.84
2023-09-14T00:51:30.545Z,101336.03
2023-09-14T00:54:20.551Z,101359.19
2023-09-14T00:56:57.003Z,101355.84
2023-09-14T00:59:23.768Z,101368.78
2023-09-14T01:01:59.605Z,101364.53
2023-09-14T01:04:33.589Z,101356.84
2023-09-14T01:07:00.331Z,101363.22
2023-09-14T01:09:31.244Z,101359.53
2023-09-14T01:11:58.765Z,101361.63
2023-09-14T01:14:43.238Z,101372.16
2023-09-14T01:17:55.699Z,101362.47
2023-09-14T01:21:14.418Z,101363.41
2023-09-14T01:24:42.100Z,101367.94
2023-09-14T01:27:10.178Z,101373.41
2023-09-14T01:29:36.780Z,101378.66
2023-09-14T01:32:03.685Z,101386.03
2023-09-14T01:34:30.504Z,101383.19
2023-09-14T01:37:04.154Z,101378.91
2023-09-14T01:39:35.013Z,101392.28
2023-09-14T01:42:03.534Z,101389.56
2023-09-14T01:44:34.269Z,101395.09
2023-09-14T01:47:02.156Z,101393.38
2023-09-14T01:49:35.122Z,101382.28
2023-09-14T01:52:01.925Z,101387.41
2023-09-14T01:54:32.119Z,101374.44
2023-09-14T01:56:58.761Z,101374.84
2023-09-14T01:59:30.313Z,101377.94
2023-09-14T02:01:59.370Z,101372.94
2023-09-14T02:04:26.064Z,101369.91
2023-09-14T02:06:55.553Z,101376.56
2023-09-14T02:09:26.513Z,101376.94
2023-09-14T02:14:33.726Z,101368.31
2023-09-14T02:17:00.464Z,101373.72
2023-09-14T02:19:27.238Z,101371.53
2023-09-14T02:22:01.364Z,101377.53
2023-09-14T02:24:31.709Z,101366.16
2023-09-14T02:27:04.723Z,101383.50
2023-09-14T02:29:34.154Z,101378.25
2023-09-14T02:32:00.844Z,101372.59
2023-09-14T02:34:27.684Z,101376.97
2023-09-14T02:37:05.102Z,101384.09
2023-09-14T02:39:31.786Z,101382.38
2023-09-14T02:42:01.558Z,101381.69
2023-09-14T02:44:28.228Z,101394.59
2023-09-14T02:47:02.370Z,101384.72
2023-09-14T02:49:32.120Z,101381.53
2023-09-14T02:52:02.182Z,101386.66
2023-09-14T02:54:34.495Z,101384.22
2023-09-14T02:57:03.897Z,101385.78
2023-09-14T03:00:17.835Z,101388.50
2023-09-14T03:02:46.281Z,101377.38
2023-09-14T03:05:15.935Z,101383.88
2023-09-14T03:07:42.638Z,101386.72
2023-09-14T03:10:24.079Z,101378.88
2023-09-14T03:12:53.430Z,101395.03
2023-09-14T03:15:20.141Z,101383.81
2023-09-14T03:17:46.895Z,101392.72
2023-09-14T03:20:16.748Z,101393.47
2023-09-14T03:22:43.394Z,101406.06
2023-09-14T03:25:10.200Z,101411.56
2023-09-14T03:27:37.835Z,101404.50
2023-09-14T03:30:09.168Z,101398.97
2023-09-14T03:32:35.831Z,101401.19
2023-09-14T03:35:05.077Z,101408.31
2023-09-14T03:37:37.451Z,101403.50
2023-09-14T03:40:09.813Z,101388.72
2023-09-14T03:42:36.791Z,101386.16
2023-09-14T03:45:06.979Z,101403.03
2023-09-14T03:47:36.975Z,101406.69
2023-09-14T03:50:07.392Z,101410.50
2023-09-14T03:52:39.904Z,101396.31
2023-09-14T03:55:10.187Z,101404.38
2023-09-14T03:57:37.882Z,101411.03
2023-09-14T04:00:16.137Z,101404.28
2023-09-14T04:02:44.861Z,101398.81
2023-09-14T04:05:20.832Z,101402.34
2023-09-14T04:07:50.674Z,101408.00
2023-09-14T04:10:17.550Z,101390.59
2023-09-14T04:12:53.533Z,101398.19
2023-09-14T04:15:23.167Z,101398.06
2023-09-14T04:17:49.894Z,101399.53
2023-09-14T04:20:16.634Z,101402.34
2023-09-14T04:22:44.176Z,101410.69
2023-09-14T04:25:16.750Z,101412.63
2023-09-14T04:27:43.412Z,101418.13
2023-09-14T04:30:15.505Z,101422.78
2023-09-14T04:32:42.655Z,101415.81
2023-09-14T04:35:12.981Z,101425.47
2023-09-14T04:37:42.457Z,101422.66
2023-09-14T04:40:17.730Z,101431.09
2023-09-14T04:42:47.190Z,101419.47
2023-09-14T04:45:17.338Z,101436.84
2023-09-14T04:47:44.045Z,101430.72
2023-09-14T04:50:22.293Z,101438.16
2023-09-14T04:52:55.224Z,101434.84
2023-09-14T04:55:22.952Z,101447.78
2023-09-14T04:57:49.934Z,101442.88
2023-09-14T05:00:22.072Z,101440.94
2023-09-14T05:02:51.001Z,101454.25
2023-09-14T05:05:17.831Z,101450.19
2023-09-14T05:07:44.532Z,101452.34
2023-09-14T05:10:17.215Z,101451.84
2023-09-14T05:12:46.404Z,101448.13
2023-09-14T05:15:22.367Z,101458.97
2023-09-14T05:17:55.641Z,101452.81
2023-09-14T05:20:22.918Z,101457.41
2023-09-14T05:22:49.545Z,101452.81
2023-09-14T05:25:24.450Z,101465.25
2023-09-14T05:27:51.208Z,101467.00
2023-09-14T05:30:23.695Z,101456.72
2023-09-14T05:32:50.519Z,101463.38
2023-09-14T05:35:17.572Z,101479.19
2023-09-14T05:37:44.290Z,101477.09
2023-09-14T05:40:16.194Z,101473.44
2023-09-14T05:42:42.998Z,101474.59
2023-09-14T05:45:22.756Z,101473.03
2023-09-14T05:47:49.626Z,101460.94
2023-09-14T05:50:16.292Z,101476.03
2023-09-14T05:52:43.580Z,101484.56
2023-09-14T05:55:10.396Z,101478.31
2023-09-14T05:57:44.314Z,101482.03
2023-09-14T06:00:17.223Z,101493.28
2023-09-14T06:02:44.121Z,101493.16
2023-09-14T06:05:23.598Z,101496.44
2023-09-14T06:07:58.226Z,101489.78
2023-09-14T06:10:28.020Z,101494.19
2023-09-14T06:12:54.859Z,101494.75
2023-09-14T06:15:24.479Z,101502.56
2023-09-14T06:17:58.030Z,101508.75
2023-09-14T06:20:24.968Z,101512.47
2023-09-14T06:22:51.568Z,101518.09
2023-09-14T06:25:24.352Z,101519.50
2023-09-14T06:27:51.064Z,101525.31
2023-09-14T06:30:28.893Z,101530.84
2023-09-14T06:32:55.617Z,101527.44
2023-09-14T06:35:25.227Z,101535.53
2023-09-14T06:37:51.872Z,101544.91
2023-09-14T06:40:21.704Z,101547.94
2023-09-14T06:42:51.790Z,101540.16
2023-09-14T06:45:21.869Z,101539.78
2023-09-14T06:47:48.686Z,101537.25
2023-09-14T06:50:22.390Z,101538.34
2023-09-14T06:52:49.298Z,101541.38
2023-09-14T06:55:20.840Z,101531.63
2023-09-14T06:57:47.705Z,101525.50
2023-09-14T07:00:18.958Z,101541.00
2023-09-14T07:02:45.676Z,101548.09
2023-09-14T07:05:13.044Z,101548.09
2023-09-14T07:07:44.093Z,101560.22
2023-09-14T07:10:14.597Z,101559.44
2023-09-14T07:12:44.222Z,101564.91
2023-09-14T07:15:13.462Z,101563.53
2023-09-14T07:17:40.094Z,101561.69
2023-09-14T07:20:09.061Z,101571.13
2023-09-14T07:22:35.687Z,101580.13
2023-09-14T07:25:03.465Z,101575.44
2023-09-14T07:27:30.143Z,101579.81
2023-09-14T07:29:56.821Z,101570.34
2023-09-14T07:32:23.586Z,101588.03
2023-09-14T07:34:50.263Z,101587.50
2023-09-14T07:37:17.048Z,101590.50
2023-09-14T07:39:50.099Z,101597.69
2023-09-14T07:42:17.533Z,101590.94
2023-09-14T07:44:47.068Z,101600.66
2023-09-14T07:47:21.948Z,101599.19
2023-09-14T07:49:48.654Z,101597.94
2023-09-14T07:52:18.434Z,101597.59
2023-09-14T07:54:47.383Z,101603.34
2023-09-14T07:57:16.788Z,101592.16
2023-09-14T07:59:46.577Z,101604.13
2023-09-14T08:02:13.243Z,101606.22
2023-09-14T08:04:40.085Z,101604.75
2023-09-14T08:07:06.827Z,101615.13
2023-09-14T08:09:36.455Z,101613.81
2023-09-14T08:12:05.166Z,101621.69
2023-09-14T08:14:31.866Z,101613.06
2023-09-14T08:17:01.347Z,101620.44
2023-09-14T08:19:28.027Z,101628.19
2023-09-14T08:21:54.824Z,101617.25
2023-09-14T08:24:24.644Z,101622.63
2023-09-14T08:26:52.159Z,101626.50
2023-09-14T08:29:24.566Z,101616.44
2023-09-14T08:31:51.594Z,101610.31
2023-09-14T08:34:21.045Z,101625.50
2023-09-14T08:36:50.828Z,101609.91
2023-09-14T08:39:20.452Z,101618.84
2023-09-14T08:41:48.233Z,101618.84
2023-09-14T08:44:19.112Z,101619.88
2023-09-14T08:46:52.931Z,101626.63
2023-09-14T08:49:22.521Z,101617.06
2023-09-14T08:51:52.429Z,101623.84
2023-09-14T08:54:27.230Z,101623.06
2023-09-14T08:56:54.102Z,101627.63
2023-09-14T08:59:36.090Z,101631.69
2023-09-14T09:02:04.196Z,101632.78
2023-09-14T09:04:31.230Z,101631.53
2023-09-14T09:06:58.959Z,101629.19
2023-09-14T09:09:30.983Z,101625.41
2023-09-14T09:11:57.976Z,101624.53
2023-09-14T09:14:33.750Z,101631.09
2023-09-14T09:17:00.678Z,101629.84
2023-09-14T09:19:53.537Z,101630.44
2023-09-14T09:22:30.363Z,101630.22
2023-09-14T09:25:01.187Z,101638.25
2023-09-14T09:27:30.605Z,101632.25
2023-09-14T09:30:01.804Z,101642.38
2023-09-14T09:32:28.642Z,101633.34
2023-09-14T09:34:55.316Z,101630.53
2023-09-14T09:37:46.567Z,101633.88
2023-09-14T09:40:36.736Z,101633.53
2023-09-14T09:43:08.730Z,101622.13
2023-09-14T09:45:44.656Z,101634.81
2023-09-14T09:48:15.385Z,101637.25
2023-09-14T09:50:44.788Z,101644.00
2023-09-14T09:53:16.026Z,101628.25
2023-09-14T09:55:47.176Z,101633.38
2023-09-14T09:58:18.456Z,101646.25
2023-09-14T10:00:45.743Z,101644.34
2023-09-14T10:03:19.413Z,101645.06
2023-09-14T10:05:46.397Z,101639.41
2023-09-14T10:08:24.845Z,101649.13
2023-09-14T10:11:01.306Z,101637.94
2023-09-14T10:13:32.550Z,101639.66
2023-09-14T10:16:03.355Z,101638.66
2023-09-14T10:18:37.376Z,101644.13
2023-09-14T10:21:05.504Z,101640.53
2023-09-14T10:23:35.729Z,101639.72
2023-09-14T10:26:05.337Z,101646.34
2023-09-14T10:28:38.482Z,101646.16
2023-09-14T10:31:12.191Z,101651.66
2023-09-14T10:33:44.860Z,101648.47
2023-09-14T10:36:12.860Z,101650.38
2023-09-14T10:38:47.329Z,101651.66
2023-09-14T10:41:15.413Z,101653.94
2023-09-14T10:43:42.702Z,101649.69
2023-09-14T10:46:25.730Z,101645.28
2023-09-14T10:48:57.998Z,101637.63
2023-09-14T10:51:42.752Z,101645.91
2023-09-14T10:54:12.034Z,101629.63
2023-09-14T10:56:39.303Z,101635.78
2023-09-14T10:59:12.588Z,101630.91
2023-09-14T11:04:21.175Z,101621.97
2023-09-14T11:06:59.479Z,101620.50
2023-09-14T11:09:30.886Z,101620.72
2023-09-14T11:11:59.759Z,101616.47
2023-09-14T11:14:30.035Z,101624.97
2023-09-14T11:17:02.301Z,101616.09
2023-09-14T11:19:51.379Z,101622.22
2023-09-14T11:22:29.918Z,101619.88
2023-09-14T11:25:00.360Z,101615.00
2023-09-14T11:27:37.405Z,101611.63
2023-09-14T11:30:19.767Z,101620.50
2023-09-14T11:32:58.496Z,101621.56
2023-09-14T11:36:00.642Z,101623.06
2023-09-14T11:38:33.891Z,101618.31
2023-09-14T11:41:23.347Z,101614.69
2023-09-14T11:46:41.717Z,101615.06
2023-09-14T11:51:53.815Z,101603.69
2023-09-14T11:54:21.458Z,101598.94
2023-09-14T11:56:50.175Z,101602.66
2023-09-14T11:59:43.276Z,101606.38
2023-09-14T12:02:14.240Z,101599.88
2023-09-14T12:04:41.457Z,101609.03
2023-09-14T12:07:11.573Z,101614.47
2023-09-14T12:09:44.032Z,101621.41
2023-09-14T12:12:26.455Z,101618.50
2023-09-14T12:15:00.297Z,101624.84
2023-09-14T12:17:43.838Z,101621.66
2023-09-14T12:20:12.580Z,101619.97
2023-09-14T12:22:39.304Z,101619.34
2023-09-14T12:25:07.412Z,101628.91
2023-09-14T12:27:45.384Z,101622.97
2023-09-14T12:30:14.029Z,101628.19
2023-09-14T12:32:42.154Z,101623.09
2023-09-14T12:35:13.761Z,101626.34
2023-09-14T12:37:43.416Z,101625.34
2023-09-14T12:40:13.915Z,101627.75
2023-09-14T12:42:44.852Z,101628.25
2023-09-14T12:45:21.585Z,101627.19
2023-09-14T12:47:49.741Z,101624.72
2023-09-14T12:50:19.404Z,101628.13
2023-09-14T12:52:47.843Z,101623.34
2023-09-14T12:55:17.931Z,101615.03
2023-09-14T12:57:53.987Z,101623.19
2023-09-14T13:00:35.160Z,101620.59
2023-09-14T13:03:13.616Z,101609.19
2023-09-14T13:05:49.595Z,101606.19
2023-09-14T13:08:18.650Z,101610.78
2023-09-14T13:10:47.486Z,101607.25
2023-09-14T13:13:15.509Z,101602.25
2023-09-14T13:15:46.006Z,101596.84
2023-09-14T13:18:18.000Z,101590.38
2023-09-14T13:21:10.308Z,101590.06
2023-09-14T13:23:43.642Z,101586.09
2023-09-14T13:26:21.817Z,101583.94
2023-09-14T13:28:49.104Z,101578.91
2023-09-14T13:31:19.502Z,101599.81
2023-09-14T13:33:46.308Z,101594.25
2023-09-14T13:36:13.256Z,101603.19
2023-09-14T13:38:40.415Z,101594.63
2023-09-14T13:41:26.851Z,101593.47
2023-09-14T13:43:55.010Z,101594.00
2023-09-14T13:46:21.839Z,101590.34
2023-09-14T13:48:55.095Z,101580.28
2023-09-14T13:51:21.811Z,101580.19
2023-09-14T13:53:51.131Z,101581.91
2023-09-14T13:56:27.108Z,101581.56
2023-09-14T13:58:56.993Z,101571.06
2023-09-14T14:01:24.135Z,101576.53
2023-09-14T14:03:57.100Z,101574.53
2023-09-14T14:06:24.092Z,101566.41
2023-09-14T14:08:51.067Z,101568.63
2023-09-14T14:11:21.166Z,101572.94
2023-09-14T14:13:50.873Z,101566.06
2023-09-14T14:16:20.595Z,101573.13
2023-09-14T14:18:47.541Z,101580.53
2023-09-14T14:21:14.463Z,101569.75
2023-09-14T14:23:41.217Z,101574.34
2023-09-14T14:26:15.563Z,101567.09
2023-09-14T14:28:44.519Z,101570.63
2023-09-14T14:31:11.913Z,101573.94
2023-09-14T14:33:41.447Z,101571.69
2023-09-14T14:36:08.107Z,101570.97
2023-09-14T14:38:34.779Z,101570.38
2023-09-14T14:41:25.948Z,101575.53
2023-09-14T14:43:53.519Z,101574.03
2023-09-14T14:46:22.249Z,101566.06
2023-09-14T14:48:54.828Z,101574.22
2023-09-14T14:51:21.804Z,101558.47
2023-09-14T14:53:48.818Z,101574.56
2023-09-14T14:56:15.886Z,101561.13
2023-09-14T14:58:47.658Z,101563.50
2023-09-14T15:01:21.155Z,101568.13
2023-09-14T15:03:59.403Z,101565.63
2023-09-14T15:06:29.107Z,101560.97
2023-09-14T15:09:05.464Z,101583.69
2023-09-14T15:11:32.191Z,101581.91
2023-09-14T15:13:59.683Z,101582.44
2023-09-14T15:16:32.333Z,101570.84
2023-09-14T15:18:59.285Z,101577.34
2023-09-14T15:21:26.459Z,101581.00
2023-09-14T15:23:53.342Z,101583.66
2023-09-14T15:26:20.145Z,101579.59
2023-09-14T15:28:51.104Z,101577.38
2023-09-14T15:31:23.080Z,101581.25
2023-09-14T15:33:50.360Z,101578.97
2023-09-14T15:36:19.282Z,101582.69
2023-09-14T15:38:46.764Z,101579.06
2023-09-14T15:41:19.619Z,101577.09
2023-09-14T15:44:09.209Z,101572.25
2023-09-14T15:46:39.633Z,101568.75
2023-09-14T15:49:12.107Z,101555.16
2023-09-14T15:51:39.407Z,101561.66
2023-09-14T15:54:09.167Z,101582.59
2023-09-14T15:56:35.905Z,101570.88
2023-09-14T15:59:08.121Z,101577.22
2023-09-14T16:01:39.987Z,101582.00
2023-09-14T16:04:07.518Z,101568.78
2023-09-14T16:06:38.977Z,101577.88
2023-09-14T16:09:12.003Z,101574.00
2023-09-14T16:11:38.798Z,101578.81
2023-09-14T16:14:12.641Z,101570.31
2023-09-14T16:16:48.725Z,101571.53
2023-09-14T16:19:17.160Z,101579.22
2023-09-14T16:21:51.033Z,101569.75
2023-09-14T16:24:18.072Z,101566.91
2023-09-14T16:26:44.892Z,101562.84
2023-09-14T16:29:14.659Z,101571.03
2023-09-14T16:31:41.906Z,101562.25
2023-09-14T16:34:13.310Z,101556.19
2023-09-14T16:36:41.267Z,101563.34
2023-09-14T16:39:08.542Z,101571.72
2023-09-14T16:41:39.923Z,101577.88
2023-09-14T16:44:11.596Z,101574.47
2023-09-14T16:46:38.834Z,101574.44
2023-09-14T16:49:25.489Z,101586.91
2023-09-14T16:51:56.742Z,101575.84
2023-09-14T16:54:32.415Z,101568.72
2023-09-14T16:57:09.364Z,101563.44
2023-09-14T16:59:38.224Z,101584.09
2023-09-14T17:02:12.355Z,101562.50
2023-09-14T17:04:42.132Z,101577.97
2023-09-14T17:07:12.404Z,101562.06
2023-09-14T17:10:47.491Z,101573.94
2023-09-14T17:39:53.662Z,101551.28
2023-09-14T17:43:16.477Z,101565.44
2023-09-14T17:46:44.579Z,101570.22
2023-09-14T17:49:14.302Z,101566.91
2023-09-14T17:51:41.152Z,101580.19
2023-09-14T17:54:08.108Z,101575.69
2023-09-14T17:56:38.847Z,101570.13
2023-09-14T17:59:05.518Z,101573.75
2023-09-14T18:01:32.380Z,101578.63
2023-09-14T18:04:02.551Z,101572.63
2023-09-14T18:06:29.619Z,101569.13
2023-09-14T18:09:00.640Z,101572.69
2023-09-14T18:11:27.510Z,101571.28
2023-09-14T18:13:54.463Z,101566.59
2023-09-14T18:16:21.167Z,101570.59
2023-09-14T18:18:51.112Z,101578.72
2023-09-14T18:21:17.821Z,101573.72
2023-09-14T18:23:45.639Z,101577.59
2023-09-14T18:26:15.753Z,101576.88
2023-09-14T18:28:42.413Z,101581.75
2023-09-14T18:31:13.519Z,101577.31
2023-09-14T18:33:42.903Z,101574.06
2023-09-14T18:36:09.577Z,101568.91
2023-09-14T18:38:36.598Z,101572.63
2023-09-14T18:41:09.831Z,101571.78
2023-09-14T18:43:39.648Z,101577.03
2023-09-14T18:46:10.967Z,101564.38
2023-09-14T18:48:37.886Z,101578.63
2023-09-14T18:51:04.784Z,101582.75
2023-09-14T18:53:32.406Z,101585.16
2023-09-14T18:56:02.855Z,101588.16
2023-09-14T19:01:03.607Z,101586.59
2023-09-14T19:03:30.535Z,101582.16
2023-09-14T19:06:01.279Z,101596.41
2023-09-14T19:08:28.124Z,101598.56
2023-09-14T19:10:58.304Z,101579.03
2023-09-14T19:13:25.049Z,101581.16
2023-09-14T19:15:52.716Z,101579.78
2023-09-14T19:18:19.894Z,101580.75
2023-09-14T19:20:47.964Z,101573.63
2023-09-14T19:23:19.880Z,101585.72
2023-09-14T19:26:11.714Z,101579.03
2023-09-14T19:28:38.580Z,101581.16
2023-09-14T19:31:12.670Z,101586.69
2023-09-14T19:33:39.391Z,101594.13
2023-09-14T19:36:06.193Z,101580.88
2023-09-14T19:38:32.925Z,101591.81
2023-09-14T19:41:03.781Z,101589.28
2023-09-14T19:43:30.431Z,101593.13
2023-09-14T19:46:04.436Z,101587.97
2023-09-14T19:48:31.447Z,101581.13
2023-09-14T19:51:00.193Z,101590.25
2023-09-14T19:53:40.239Z,101587.13
2023-09-14T19:56:08.870Z,101581.25
2023-09-14T19:58:37.525Z,101591.09
2023-09-14T20:01:07.949Z,101598.50
2023-09-14T20:03:35.372Z,101593.63
2023-09-14T20:06:02.265Z,101595.63
2023-09-14T20:08:29.988Z,101594.91
2023-09-14T20:10:58.826Z,101601.31
2023-09-14T20:13:26.052Z,101599.75
2023-09-14T20:15:53.342Z,101600.88
2023-09-14T20:18:20.643Z,101599.16
2023-09-14T20:20:47.314Z,101591.91
2023-09-14T20:23:14.060Z,101593.03
2023-09-14T20:25:40.837Z,101595.75
2023-09-14T20:28:15.230Z,101587.63
2023-09-14T20:30:41.973Z,101591.34
2023-09-14T20:33:13.188Z,101587.91
2023-09-14T20:35:39.908Z,101581.38
2023-09-14T20:38:09.114Z,101594.88
2023-09-14T20:40:43.253Z,101595.00
2023-09-14T20:43:10.036Z,101593.88
2023-09-14T20:45:42.442Z,101589.31
2023-09-14T20:48:21.364Z,101588.75
2023-09-14T20:50:49.831Z,101593.97
2023-09-14T20:53:23.016Z,101601.84
2023-09-14T20:56:11.381Z,101597.41
2023-09-14T20:58:39.477Z,101593.44
2023-09-14T21:01:19.591Z,101588.03
2023-09-14T21:03:46.486Z,101588.28
2023-09-14T21:06:14.390Z,101587.56
2023-09-14T21:08:41.376Z,101592.09
2023-09-14T21:11:10.627Z,101588.84
2023-09-14T21:13:37.351Z,101588.25
2023-09-14T21:16:07.903Z,101595.50
2023-09-14T21:18:34.746Z,101586.09
2023-09-14T21:21:28.248Z,101590.75
2023-09-14T21:23:56.289Z,101588.03
2023-09-14T21:26:26.152Z,101585.47
2023-09-14T21:28:52.815Z,101594.56
2023-09-14T21:31:22.507Z,101603.63
2023-09-14T21:33:49.139Z,101605.16
2023-09-14T21:36:25.450Z,101607.56
2023-09-14T21:38:52.272Z,101610.81
2023-09-14T21:41:25.062Z,101617.31
2023-09-14T21:43:51.722Z,101611.34
2023-09-14T21:46:18.432Z,101612.56
2023-09-14T21:48:45.248Z,101610.16
2023-09-14T21:51:15.302Z,101612.84
2023-09-14T21:53:41.930Z,101611.00
2023-09-14T21:56:11.062Z,101606.34
2023-09-14T21:58:37.761Z,101600.22
2023-09-14T22:01:04.542Z,101601.38
2023-09-14T22:03:45.043Z,101610.59
2023-09-14T22:06:24.317Z,101606.91
2023-09-14T22:08:52.999Z,101614.16
2023-09-14T22:11:19.644Z,101609.88
2023-09-14T22:13:46.405Z,101614.16
2023-09-14T22:16:23.573Z,101618.31
2023-09-14T22:18:51.766Z,101615.59
2023-09-14T22:21:20.757Z,101616.59
2023-09-14T22:23:48.684Z,101614.88
2023-09-14T22:26:20.433Z,101610.22
2023-09-14T22:28:47.580Z,101615.47
2023-09-14T22:31:19.205Z,101611.06
2023-09-14T22:33:46.119Z,101614.47
2023-09-14T22:36:15.961Z,101606.78
2023-09-14T22:38:42.717Z,101607.63
2023-09-14T22:41:21.328Z,101609.34
2023-09-14T22:43:48.028Z,101614.88
2023-09-14T22:46:20.849Z,101617.31
2023-09-14T22:48:48.744Z,101617.19
2023-09-14T22:51:17.971Z,101611.06
2023-09-14T22:53:45.392Z,101602.94
2023-09-14T22:56:18.781Z,101609.19
2023-09-14T22:58:53.203Z,101610.31
2023-09-14T23:01:29.221Z,101608.50
2023-09-14T23:03:57.410Z,101605.09
2023-09-14T23:06:28.145Z,101601.78
2023-09-14T23:08:54.790Z,101600.34
2023-09-14T23:11:48.009Z,101604.59
2023-09-14T23:14:18.858Z,101600.00
2023-09-14T23:17:18.053Z,101608.81
2023-09-14T23:19:45.055Z,101599.03
2023-09-14T23:22:11.883Z,101599.75
2023-09-14T23:24:39.437Z,101597.91
2023-09-14T23:27:06.348Z,101595.34
2023-09-14T23:29:33.195Z,101593.16
2023-09-14T23:31:59.937Z,101596.72
2023-09-14T23:34:32.877Z,101596.72
2023-09-14T23:36:59.996Z,101588.72
2023-09-14T23:39:30.059Z,101593.16
2023-09-14T23:42:05.356Z,101587.88
2023-09-14T23:44:33.628Z,101594.88
2023-09-14T23:47:00.388Z,101587.56
2023-09-14T23:49:30.873Z,101583.59
2023-09-14T23:51:57.690Z,101597.09
2023-09-14T23:54:24.391Z,101591.94
2023-09-14T23:56:51.515Z,101588.53
2023-09-14T23:59:24.482Z,101592.09
